sensor_id;sensor_type;location;lat;lon;timestamp;pressure;altitude;pressure_sealevel;temperature;humidity
51245;BME280;37840;47.562;18.738;2023-05-07T00:02:07;99744.97;;;15.13;83.76
51245;BME280;37840;47.562;18.738;2023-05-07T00:04:33;99752.84;;;15.05;84.19
51245;BME280;37840;47.562;18.738;2023-05-07T00:07:03;99758.03;;;15.06;84.21
51245;BME280;37840;47.562;18.738;2023-05-07T00:09:29;99751.25;;;15.02;84.49
51245;BME280;37840;47.562;18.738;2023-05-07T00:11:55;99751.44;;;15.01;84.79
51245;BME280;37840;47.562;18.738;2023-05-07T00:14:21;99755.38;;;15.06;84.28
51245;BME280;37840;47.562;18.738;2023-05-07T00:16:47;99760.16;;;15.03;83.92
51245;BME280;37840;47.562;18.738;2023-05-07T00:19:13;99751.69;;;14.98;84.27
51245;BME280;37840;47.562;18.738;2023-05-07T00:21:38;99755.22;;;14.98;84.29
51245;BME280;37840;47.562;18.738;2023-05-07T00:24:05;99747.59;;;14.94;84.84
51245;BME280;37840;47.562;18.738;2023-05-07T00:26:30;99751.97;;;14.95;85.18
51245;BME280;37840;47.562;18.738;2023-05-07T00:28:56;99751.13;;;14.94;85.60
51245;BME280;37840;47.562;18.738;2023-05-07T00:31:22;99745.62;;;14.96;86.26
51245;BME280;37840;47.562;18.738;2023-05-07T00:33:48;99750.25;;;14.94;86.42
51245;BME280;37840;47.562;18.738;2023-05-07T00:36:14;99749.37;;;14.74;86.44
51245;BME280;37840;47.562;18.738;2023-05-07T00:38:40;99751.19;;;14.73;84.99
51245;BME280;37840;47.562;18.738;2023-05-07T00:41:06;99744.00;;;14.74;84.65
51245;BME280;37840;47.562;18.738;2023-05-07T00:43:32;99746.81;;;14.72;84.60
51245;BME280;37840;47.562;18.738;2023-05-07T00:45:58;99754.53;;;14.65;84.92
51245;BME280;37840;47.562;18.738;2023-05-07T00:48:24;99751.75;;;14.67;85.09
51245;BME280;37840;47.562;18.738;2023-05-07T00:50:51;99755.53;;;14.64;85.85
51245;BME280;37840;47.562;18.738;2023-05-07T00:53:17;99751.16;;;14.63;86.26
51245;BME280;37840;47.562;18.738;2023-05-07T00:55:43;99758.34;;;14.63;85.65
51245;BME280;37840;47.562;18.738;2023-05-07T00:58:10;99757.03;;;14.57;84.25
51245;BME280;37840;47.562;18.738;2023-05-07T01:00:36;99757.28;;;14.54;84.37
51245;BME280;37840;47.562;18.738;2023-05-07T01:03:02;99755.75;;;14.52;85.33
51245;BME280;37840;47.562;18.738;2023-05-07T01:05:28;99751.75;;;14.46;85.44
51245;BME280;37840;47.562;18.738;2023-05-07T01:07:56;99761.75;;;14.44;86.28
51245;BME280;37840;47.562;18.738;2023-05-07T01:10:23;99767.09;;;14.44;86.01
51245;BME280;37840;47.562;18.738;2023-05-07T01:12:50;99758.34;;;14.42;85.91
51245;BME280;37840;47.562;18.738;2023-05-07T01:15:17;99759.19;;;14.42;85.85
51245;BME280;37840;47.562;18.738;2023-05-07T01:17:43;99747.66;;;14.42;86.58
51245;BME280;37840;47.562;18.738;2023-05-07T01:20:10;99750.91;;;14.45;86.41
51245;BME280;37840;47.562;18.738;2023-05-07T01:22:37;99754.44;;;14.46;86.29
51245;BME280;37840;47.562;18.738;2023-05-07T01:25:07;99755.28;;;14.46;86.21
51245;BME280;37840;47.562;18.738;2023-05-07T01:27:34;99745.88;;;14.52;85.71
51245;BME280;37840;47.562;18.738;2023-05-07T01:30:01;99753.44;;;14.47;86.02
51245;BME280;37840;47.562;18.738;2023-05-07T01:35:11;99756.94;;;14.38;84.50
51245;BME280;37840;47.562;18.738;2023-05-07T01:37:39;99756.22;;;14.36;84.88
51245;BME280;37840;47.562;18.738;2023-05-07T01:40:07;99758.28;;;14.32;84.62
51245;BME280;37840;47.562;18.738;2023-05-07T01:42:33;99760.09;;;14.22;85.21
51245;BME280;37840;47.562;18.738;2023-05-07T01:44:59;99759.94;;;14.23;85.46
51245;BME280;37840;47.562;18.738;2023-05-07T01:47:25;99763.59;;;14.22;85.33
51245;BME280;37840;47.562;18.738;2023-05-07T01:49:52;99757.25;;;14.23;84.84
51245;BME280;37840;47.562;18.738;2023-05-07T01:52:18;99759.91;;;14.14;85.41
51245;BME280;37840;47.562;18.738;2023-05-07T01:54:44;99758.72;;;14.06;85.97
51245;BME280;37840;47.562;18.738;2023-05-07T01:57:10;99762.38;;;14.05;86.96
51245;BME280;37840;47.562;18.738;2023-05-07T01:59:36;99759.94;;;14.02;86.78
51245;BME280;37840;47.562;18.738;2023-05-07T02:02:02;99760.41;;;14.07;86.32
51245;BME280;37840;47.562;18.738;2023-05-07T02:04:28;99759.59;;;14.07;86.47
51245;BME280;37840;47.562;18.738;2023-05-07T02:06:54;99758.38;;;14.00;86.83
51245;BME280;37840;47.562;18.738;2023-05-07T02:09:21;99756.22;;;13.94;87.27
51245;BME280;37840;47.562;18.738;2023-05-07T02:11:48;99756.38;;;13.92;87.97
51245;BME280;37840;47.562;18.738;2023-05-07T02:14:14;99757.63;;;13.88;88.30
51245;BME280;37840;47.562;18.738;2023-05-07T02:16:41;99748.22;;;13.94;87.41
51245;BME280;37840;47.562;18.738;2023-05-07T02:19:07;99752.91;;;14.01;86.16
51245;BME280;37840;47.562;18.738;2023-05-07T02:21:33;99753.72;;;13.92;86.56
51245;BME280;37840;47.562;18.738;2023-05-07T02:23:59;99754.94;;;13.88;86.73
51245;BME280;37840;47.562;18.738;2023-05-07T02:26:25;99749.59;;;13.88;86.60
51245;BME280;37840;47.562;18.738;2023-05-07T02:28:51;99748.50;;;13.91;86.70
51245;BME280;37840;47.562;18.738;2023-05-07T02:31:17;99747.66;;;13.90;86.63
51245;BME280;37840;47.562;18.738;2023-05-07T02:33:43;99742.41;;;13.89;86.26
51245;BME280;37840;47.562;18.738;2023-05-07T02:36:11;99749.53;;;13.78;85.81
51245;BME280;37840;47.562;18.738;2023-05-07T02:38:38;99748.69;;;13.78;85.31
51245;BME280;37840;47.562;18.738;2023-05-07T02:41:04;99750.88;;;13.73;82.07
51245;BME280;37840;47.562;18.738;2023-05-07T02:43:30;99748.75;;;13.66;82.99
51245;BME280;37840;47.562;18.738;2023-05-07T02:46:05;99742.09;;;13.61;83.40
51245;BME280;37840;47.562;18.738;2023-05-07T02:48:32;99751.59;;;13.54;84.18
51245;BME280;37840;47.562;18.738;2023-05-07T02:50:59;99748.91;;;13.54;83.78
51245;BME280;37840;47.562;18.738;2023-05-07T02:53:25;99736.66;;;13.51;83.79
51245;BME280;37840;47.562;18.738;2023-05-07T02:55:53;99744.81;;;13.50;84.19
51245;BME280;37840;47.562;18.738;2023-05-07T02:58:19;99736.31;;;13.44;85.08
51245;BME280;37840;47.562;18.738;2023-05-07T03:00:45;99739.38;;;13.40;85.66
51245;BME280;37840;47.562;18.738;2023-05-07T03:03:11;99736.44;;;13.43;85.57
51245;BME280;37840;47.562;18.738;2023-05-07T03:05:37;99742.66;;;13.43;85.62
51245;BME280;37840;47.562;18.738;2023-05-07T03:08:03;99741.91;;;13.41;85.71
51245;BME280;37840;47.562;18.738;2023-05-07T03:10:30;99740.69;;;13.45;85.51
51245;BME280;37840;47.562;18.738;2023-05-07T03:12:56;99742.75;;;13.42;85.84
51245;BME280;37840;47.562;18.738;2023-05-07T03:15:22;99736.97;;;13.37;86.04
51245;BME280;37840;47.562;18.738;2023-05-07T03:17:48;99743.28;;;13.36;85.94
51245;BME280;37840;47.562;18.738;2023-05-07T03:20:14;99752.84;;;13.38;85.61
51245;BME280;37840;47.562;18.738;2023-05-07T03:22:40;99755.66;;;13.37;85.42
51245;BME280;37840;47.562;18.738;2023-05-07T03:25:07;99757.47;;;13.36;85.08
51245;BME280;37840;47.562;18.738;2023-05-07T03:27:33;99756.75;;;13.34;86.45
51245;BME280;37840;47.562;18.738;2023-05-07T03:29:59;99747.44;;;13.29;86.62
51245;BME280;37840;47.562;18.738;2023-05-07T03:32:25;99750.69;;;13.32;86.63
51245;BME280;37840;47.562;18.738;2023-05-07T03:34:51;99745.94;;;13.24;86.89
51245;BME280;37840;47.562;18.738;2023-05-07T03:37:18;99751.03;;;13.27;84.89
51245;BME280;37840;47.562;18.738;2023-05-07T03:39:44;99755.22;;;13.09;85.37
51245;BME280;37840;47.562;18.738;2023-05-07T03:42:10;99763.34;;;13.08;86.14
51245;BME280;37840;47.562;18.738;2023-05-07T03:44:36;99763.47;;;13.06;86.80
51245;BME280;37840;47.562;18.738;2023-05-07T03:47:02;99763.34;;;13.08;86.87
51245;BME280;37840;47.562;18.738;2023-05-07T03:49:28;99763.81;;;13.13;86.69
51245;BME280;37840;47.562;18.738;2023-05-07T03:51:54;99765.63;;;13.12;86.80
51245;BME280;37840;47.562;18.738;2023-05-07T03:54:21;99764.31;;;13.18;86.17
51245;BME280;37840;47.562;18.738;2023-05-07T03:56:47;99756.28;;;13.18;86.13
51245;BME280;37840;47.562;18.738;2023-05-07T03:59:13;99773.03;;;13.20;85.93
51245;BME280;37840;47.562;18.738;2023-05-07T04:01:39;99764.66;;;13.13;86.35
51245;BME280;37840;47.562;18.738;2023-05-07T04:04:05;99776.19;;;13.14;86.14
51245;BME280;37840;47.562;18.738;2023-05-07T04:06:31;99768.56;;;13.09;86.45
51245;BME280;37840;47.562;18.738;2023-05-07T04:08:57;99771.59;;;13.16;86.25
51245;BME280;37840;47.562;18.738;2023-05-07T04:11:23;99770.59;;;13.17;86.57
51245;BME280;37840;47.562;18.738;2023-05-07T04:13:50;99775.72;;;13.20;86.62
51245;BME280;37840;47.562;18.738;2023-05-07T04:16:16;99771.66;;;13.25;86.53
51245;BME280;37840;47.562;18.738;2023-05-07T04:18:42;99778.38;;;13.20;87.01
51245;BME280;37840;47.562;18.738;2023-05-07T04:21:15;99777.66;;;13.18;87.77
51245;BME280;37840;47.562;18.738;2023-05-07T04:23:41;99779.97;;;13.11;88.88
51245;BME280;37840;47.562;18.738;2023-05-07T04:26:07;99781.41;;;13.15;89.20
51245;BME280;37840;47.562;18.738;2023-05-07T04:28:34;99780.56;;;13.26;89.04
51245;BME280;37840;47.562;18.738;2023-05-07T04:31:00;99777.59;;;13.40;88.46
51245;BME280;37840;47.562;18.738;2023-05-07T04:33:26;99778.09;;;13.45;88.49
51245;BME280;37840;47.562;18.738;2023-05-07T04:35:52;99775.88;;;13.51;88.77
51245;BME280;37840;47.562;18.738;2023-05-07T04:38:18;99779.03;;;13.56;88.69
51245;BME280;37840;47.562;18.738;2023-05-07T04:40:44;99778.84;;;13.69;88.52
51245;BME280;37840;47.562;18.738;2023-05-07T04:43:10;99789.28;;;13.72;88.43
51245;BME280;37840;47.562;18.738;2023-05-07T04:45:36;99784.53;;;13.75;88.44
51245;BME280;37840;47.562;18.738;2023-05-07T04:48:02;99778.91;;;13.78;88.55
51245;BME280;37840;47.562;18.738;2023-05-07T04:50:28;99789.22;;;13.83;88.73
51245;BME280;37840;47.562;18.738;2023-05-07T04:52:54;99791.88;;;13.83;88.89
51245;BME280;37840;47.562;18.738;2023-05-07T04:55:20;99795.87;;;13.89;89.08
51245;BME280;37840;47.562;18.738;2023-05-07T04:57:46;99795.25;;;13.96;89.04
51245;BME280;37840;47.562;18.738;2023-05-07T05:00:13;99787.41;;;14.04;89.17
51245;BME280;37840;47.562;18.738;2023-05-07T05:02:40;99794.66;;;14.14;89.66
51245;BME280;37840;47.562;18.738;2023-05-07T05:05:07;99788.06;;;14.18;90.35
51245;BME280;37840;47.562;18.738;2023-05-07T05:07:33;99789.22;;;14.25;92.45
51245;BME280;37840;47.562;18.738;2023-05-07T05:09:59;99794.97;;;14.41;94.20
51245;BME280;37840;47.562;18.738;2023-05-07T05:12:25;99791.28;;;14.42;95.25
51245;BME280;37840;47.562;18.738;2023-05-07T05:14:51;99787.97;;;14.50;95.26
51245;BME280;37840;47.562;18.738;2023-05-07T05:17:17;99793.91;;;14.54;95.69
51245;BME280;37840;47.562;18.738;2023-05-07T05:19:43;99788.19;;;14.58;96.10
51245;BME280;37840;47.562;18.738;2023-05-07T05:22:09;99798.91;;;14.68;96.10
51245;BME280;37840;47.562;18.738;2023-05-07T05:24:35;99797.97;;;14.79;96.32
51245;BME280;37840;47.562;18.738;2023-05-07T05:27:01;99799.44;;;14.93;96.12
51245;BME280;37840;47.562;18.738;2023-05-07T05:29:27;99797.13;;;15.09;96.30
51245;BME280;37840;47.562;18.738;2023-05-07T05:31:53;99789.53;;;15.34;98.41
51245;BME280;37840;47.562;18.738;2023-05-07T05:34:19;99779.41;;;15.47;96.60
51245;BME280;37840;47.562;18.738;2023-05-07T05:36:45;99780.13;;;15.59;96.39
51245;BME280;37840;47.562;18.738;2023-05-07T05:39:11;99774.06;;;15.57;95.42
51245;BME280;37840;47.562;18.738;2023-05-07T05:41:38;99772.22;;;15.67;95.25
51245;BME280;37840;47.562;18.738;2023-05-07T05:44:04;99770.00;;;15.82;94.35
51245;BME280;37840;47.562;18.738;2023-05-07T05:46:30;99773.66;;;15.90;92.34
51245;BME280;37840;47.562;18.738;2023-05-07T05:48:56;99770.09;;;16.09;90.95
51245;BME280;37840;47.562;18.738;2023-05-07T05:51:24;99767.81;;;16.24;89.34
51245;BME280;37840;47.562;18.738;2023-05-07T05:53:50;99776.69;;;16.35;90.03
51245;BME280;37840;47.562;18.738;2023-05-07T05:56:16;99778.47;;;16.54;90.77
51245;BME280;37840;47.562;18.738;2023-05-07T05:58:42;99781.38;;;16.70;89.26
51245;BME280;37840;47.562;18.738;2023-05-07T06:01:08;99785.88;;;16.79;88.63
51245;BME280;37840;47.562;18.738;2023-05-07T06:03:34;99789.22;;;16.91;87.13
51245;BME280;37840;47.562;18.738;2023-05-07T06:06:00;99777.88;;;16.97;87.33
51245;BME280;37840;47.562;18.738;2023-05-07T06:08:29;99783.31;;;17.15;87.03
51245;BME280;37840;47.562;18.738;2023-05-07T06:10:56;99783.56;;;17.22;86.36
51245;BME280;37840;47.562;18.738;2023-05-07T06:13:22;99776.97;;;17.34;86.31
51245;BME280;37840;47.562;18.738;2023-05-07T06:15:49;99780.13;;;17.47;86.21
51245;BME280;37840;47.562;18.738;2023-05-07T06:18:15;99774.22;;;17.62;85.52
51245;BME280;37840;47.562;18.738;2023-05-07T06:20:41;99775.62;;;17.84;85.96
51245;BME280;37840;47.562;18.738;2023-05-07T06:23:07;99766.81;;;18.00;82.71
51245;BME280;37840;47.562;18.738;2023-05-07T06:25:33;99771.34;;;18.17;79.63
51245;BME280;37840;47.562;18.738;2023-05-07T06:27:59;99781.06;;;18.36;77.77
51245;BME280;37840;47.562;18.738;2023-05-07T06:30:24;99777.72;;;18.42;77.10
51245;BME280;37840;47.562;18.738;2023-05-07T06:32:50;99778.03;;;18.39;77.34
51245;BME280;37840;47.562;18.738;2023-05-07T06:35:16;99778.19;;;18.38;76.26
51245;BME280;37840;47.562;18.738;2023-05-07T06:37:42;99779.56;;;18.42;76.59
51245;BME280;37840;47.562;18.738;2023-05-07T06:40:09;99784.47;;;18.46;75.28
51245;BME280;37840;47.562;18.738;2023-05-07T06:42:36;99783.78;;;18.44;76.93
51245;BME280;37840;47.562;18.738;2023-05-07T06:45:02;99784.81;;;18.43;76.29
51245;BME280;37840;47.562;18.738;2023-05-07T06:47:28;99784.59;;;18.37;76.13
51245;BME280;37840;47.562;18.738;2023-05-07T06:49:54;99788.53;;;18.24;76.66
51245;BME280;37840;47.562;18.738;2023-05-07T06:52:20;99783.78;;;18.18;77.46
51245;BME280;37840;47.562;18.738;2023-05-07T06:54:46;99785.38;;;18.29;77.58
51245;BME280;37840;47.562;18.738;2023-05-07T06:57:12;99782.00;;;18.27;77.56
51245;BME280;37840;47.562;18.738;2023-05-07T06:59:37;99795.72;;;18.16;77.87
51245;BME280;37840;47.562;18.738;2023-05-07T07:02:03;99797.56;;;18.15;78.08
51245;BME280;37840;47.562;18.738;2023-05-07T07:04:29;99800.88;;;18.09;77.27
51245;BME280;37840;47.562;18.738;2023-05-07T07:06:55;99804.06;;;18.04;78.27
51245;BME280;37840;47.562;18.738;2023-05-07T07:09:22;99808.88;;;18.01;79.10
51245;BME280;37840;47.562;18.738;2023-05-07T07:11:48;99817.81;;;18.01;79.51
51245;BME280;37840;47.562;18.738;2023-05-07T07:14:14;99822.03;;;18.04;81.35
51245;BME280;37840;47.562;18.738;2023-05-07T07:16:40;99821.03;;;18.05;82.06
51245;BME280;37840;47.562;18.738;2023-05-07T07:19:06;99828.09;;;18.06;81.29
51245;BME280;37840;47.562;18.738;2023-05-07T07:21:32;99835.31;;;18.05;81.39
51245;BME280;37840;47.562;18.738;2023-05-07T07:23:58;99834.34;;;18.06;82.56
51245;BME280;37840;47.562;18.738;2023-05-07T07:26:24;99838.34;;;18.02;83.33
51245;BME280;37840;47.562;18.738;2023-05-07T07:28:50;99835.94;;;17.99;82.63
51245;BME280;37840;47.562;18.738;2023-05-07T07:31:16;99829.50;;;17.92;82.58
51245;BME280;37840;47.562;18.738;2023-05-07T07:33:42;99836.41;;;17.95;83.03
51245;BME280;37840;47.562;18.738;2023-05-07T07:36:08;99831.34;;;17.91;83.75
51245;BME280;37840;47.562;18.738;2023-05-07T07:38:34;99829.09;;;17.87;83.14
51245;BME280;37840;47.562;18.738;2023-05-07T07:41:00;99836.41;;;17.77;84.13
51245;BME280;37840;47.562;18.738;2023-05-07T07:43:27;99832.13;;;17.74;84.67
51245;BME280;37840;47.562;18.738;2023-05-07T07:45:53;99837.16;;;17.69;84.73
51245;BME280;37840;47.562;18.738;2023-05-07T07:48:19;99831.22;;;17.65;86.20
51245;BME280;37840;47.562;18.738;2023-05-07T07:50:48;99834.09;;;17.64;85.24
51245;BME280;37840;47.562;18.738;2023-05-07T07:53:14;99830.53;;;17.63;86.48
51245;BME280;37840;47.562;18.738;2023-05-07T07:55:40;99832.06;;;17.66;86.15
51245;BME280;37840;47.562;18.738;2023-05-07T07:58:06;99826.69;;;17.66;86.27
51245;BME280;37840;47.562;18.738;2023-05-07T08:00:32;99828.91;;;17.52;86.29
51245;BME280;37840;47.562;18.738;2023-05-07T08:02:58;99836.44;;;17.49;85.02
51245;BME280;37840;47.562;18.738;2023-05-07T08:05:24;99833.28;;;17.53;86.68
51245;BME280;37840;47.562;18.738;2023-05-07T08:07:50;99832.97;;;17.57;87.36
51245;BME280;37840;47.562;18.738;2023-05-07T08:10:19;99835.53;;;17.58;88.21
51245;BME280;37840;47.562;18.738;2023-05-07T08:12:49;99836.78;;;17.64;87.01
51245;BME280;37840;47.562;18.738;2023-05-07T08:15:16;99840.13;;;17.66;88.56
51245;BME280;37840;47.562;18.738;2023-05-07T08:17:42;99830.84;;;17.78;89.63
51245;BME280;37840;47.562;18.738;2023-05-07T08:20:08;99833.09;;;17.83;88.13
51245;BME280;37840;47.562;18.738;2023-05-07T08:22:35;99827.03;;;17.99;87.44
51245;BME280;37840;47.562;18.738;2023-05-07T08:25:02;99826.78;;;18.10;86.74
51245;BME280;37840;47.562;18.738;2023-05-07T08:27:28;99831.13;;;18.29;85.62
51245;BME280;37840;47.562;18.738;2023-05-07T08:29:54;99830.19;;;18.38;83.92
51245;BME280;37840;47.562;18.738;2023-05-07T08:32:20;99833.81;;;18.47;83.05
51245;BME280;37840;47.562;18.738;2023-05-07T08:34:47;99833.59;;;18.66;79.69
51245;BME280;37840;47.562;18.738;2023-05-07T08:37:13;99830.78;;;18.76;78.46
51245;BME280;37840;47.562;18.738;2023-05-07T08:39:39;99840.63;;;18.85;79.23
51245;BME280;37840;47.562;18.738;2023-05-07T08:42:06;99839.88;;;19.01;79.75
51245;BME280;37840;47.562;18.738;2023-05-07T08:44:33;99839.09;;;19.17;80.26
51245;BME280;37840;47.562;18.738;2023-05-07T08:47:01;99845.03;;;19.29;80.07
51245;BME280;37840;47.562;18.738;2023-05-07T08:49:28;99847.22;;;19.33;78.62
51245;BME280;37840;47.562;18.738;2023-05-07T08:51:54;99845.62;;;19.49;78.05
51245;BME280;37840;47.562;18.738;2023-05-07T08:54:21;99852.03;;;19.56;79.20
51245;BME280;37840;47.562;18.738;2023-05-07T08:56:47;99848.34;;;19.65;79.88
51245;BME280;37840;47.562;18.738;2023-05-07T08:59:14;99844.69;;;19.74;78.04
51245;BME280;37840;47.562;18.738;2023-05-07T09:01:40;99849.44;;;19.81;76.55
51245;BME280;37840;47.562;18.738;2023-05-07T09:04:06;99847.06;;;19.86;77.46
51245;BME280;37840;47.562;18.738;2023-05-07T09:06:33;99840.84;;;20.02;78.93
51245;BME280;37840;47.562;18.738;2023-05-07T09:09:02;99842.34;;;20.12;75.82
51245;BME280;37840;47.562;18.738;2023-05-07T09:11:31;99845.25;;;20.19;77.81
51245;BME280;37840;47.562;18.738;2023-05-07T09:13:57;99850.97;;;20.16;75.65
51245;BME280;37840;47.562;18.738;2023-05-07T09:16:26;99845.25;;;20.11;74.50
51245;BME280;37840;47.562;18.738;2023-05-07T09:18:53;99844.56;;;20.09;72.46
51245;BME280;37840;47.562;18.738;2023-05-07T09:21:20;99849.13;;;20.08;72.79
51245;BME280;37840;47.562;18.738;2023-05-07T09:23:54;99847.75;;;19.96;73.85
51245;BME280;37840;47.562;18.738;2023-05-07T09:26:24;99854.50;;;19.92;70.00
51245;BME280;37840;47.562;18.738;2023-05-07T09:28:51;99855.84;;;19.80;70.10
51245;BME280;37840;47.562;18.738;2023-05-07T09:31:17;99847.56;;;19.73;72.01
51245;BME280;37840;47.562;18.738;2023-05-07T09:33:43;99849.22;;;19.66;72.16
51245;BME280;37840;47.562;18.738;2023-05-07T09:36:10;99848.53;;;19.64;72.66
51245;BME280;37840;47.562;18.738;2023-05-07T09:38:36;99853.06;;;19.63;74.33
51245;BME280;37840;47.562;18.738;2023-05-07T09:41:11;99849.69;;;19.69;74.23
51245;BME280;37840;47.562;18.738;2023-05-07T09:43:39;99855.31;;;19.76;76.36
51245;BME280;37840;47.562;18.738;2023-05-07T09:48:38;99851.53;;;19.61;74.39
51245;BME280;37840;47.562;18.738;2023-05-07T09:53:48;99857.94;;;19.51;73.62
51245;BME280;37840;47.562;18.738;2023-05-07T09:56:14;99850.50;;;19.45;73.08
51245;BME280;37840;47.562;18.738;2023-05-07T09:58:46;99851.97;;;19.40;73.22
51245;BME280;37840;47.562;18.738;2023-05-07T10:01:13;99851.47;;;19.44;72.56
51245;BME280;37840;47.562;18.738;2023-05-07T10:03:41;99852.81;;;19.40;69.55
51245;BME280;37840;47.562;18.738;2023-05-07T10:06:11;99854.72;;;19.48;67.29
51245;BME280;37840;47.562;18.738;2023-05-07T10:08:39;99861.13;;;19.47;67.84
51245;BME280;37840;47.562;18.738;2023-05-07T10:11:05;99856.41;;;19.49;68.40
51245;BME280;37840;47.562;18.738;2023-05-07T10:13:33;99854.72;;;19.56;69.49
51245;BME280;37840;47.562;18.738;2023-05-07T10:16:03;99853.75;;;19.65;65.87
51245;BME280;37840;47.562;18.738;2023-05-07T10:18:30;99859.03;;;19.75;62.86
51245;BME280;37840;47.562;18.738;2023-05-07T10:21:07;99849.44;;;19.89;60.83
51245;BME280;37840;47.562;18.738;2023-05-07T10:23:34;99849.28;;;19.99;60.84
51245;BME280;37840;47.562;18.738;2023-05-07T10:26:03;99852.97;;;20.06;61.55
51245;BME280;37840;47.562;18.738;2023-05-07T10:28:37;99844.22;;;20.12;61.33
51245;BME280;37840;47.562;18.738;2023-05-07T10:33:40;99839.34;;;20.24;61.76
51245;BME280;37840;47.562;18.738;2023-05-07T10:36:08;99849.63;;;20.28;63.30
51245;BME280;37840;47.562;18.738;2023-05-07T10:38:34;99844.22;;;20.45;63.72
51245;BME280;37840;47.562;18.738;2023-05-07T10:41:00;99842.34;;;20.53;64.78
51245;BME280;37840;47.562;18.738;2023-05-07T10:43:39;99844.72;;;20.65;61.63
51245;BME280;37840;47.562;18.738;2023-05-07T10:46:16;99841.34;;;20.63;60.48
51245;BME280;37840;47.562;18.738;2023-05-07T10:51:28;99839.44;;;20.80;59.15
51245;BME280;37840;47.562;18.738;2023-05-07T10:56:45;99835.38;;;20.92;57.33
51245;BME280;37840;47.562;18.738;2023-05-07T11:02:03;99833.22;;;21.18;57.79
51245;BME280;37840;47.562;18.738;2023-05-07T11:04:32;99829.81;;;21.25;57.05
51245;BME280;37840;47.562;18.738;2023-05-07T11:09:56;99827.91;;;21.33;57.39
51245;BME280;37840;47.562;18.738;2023-05-07T11:15:12;99825.69;;;21.45;56.22
51245;BME280;37840;47.562;18.738;2023-05-07T11:17:55;99831.97;;;21.69;56.20
51245;BME280;37840;47.562;18.738;2023-05-07T11:28:31;99830.91;;;21.78;55.11
51245;BME280;37840;47.562;18.738;2023-05-07T11:31:02;99826.16;;;21.80;57.30
51245;BME280;37840;47.562;18.738;2023-05-07T11:33:28;99832.66;;;21.94;56.21
51245;BME280;37840;47.562;18.738;2023-05-07T11:35:56;99821.16;;;21.92;53.30
51245;BME280;37840;47.562;18.738;2023-05-07T11:38:22;99820.78;;;21.95;55.66
51245;BME280;37840;47.562;18.738;2023-05-07T11:40:52;99821.16;;;21.92;54.27
51245;BME280;37840;47.562;18.738;2023-05-07T11:43:19;99827.00;;;21.81;53.27
51245;BME280;37840;47.562;18.738;2023-05-07T11:45:45;99821.66;;;21.72;53.77
51245;BME280;37840;47.562;18.738;2023-05-07T11:48:16;99818.66;;;21.59;53.30
51245;BME280;37840;47.562;18.738;2023-05-07T11:51:01;99825.03;;;21.43;54.38
51245;BME280;37840;47.562;18.738;2023-05-07T11:53:34;99822.66;;;21.40;55.74
51245;BME280;37840;47.562;18.738;2023-05-07T11:56:09;99822.03;;;21.30;54.84
51245;BME280;37840;47.562;18.738;2023-05-07T11:58:35;99818.13;;;21.32;53.95
51245;BME280;37840;47.562;18.738;2023-05-07T12:01:02;99822.00;;;21.38;54.33
51245;BME280;37840;47.562;18.738;2023-05-07T12:03:28;99807.59;;;21.46;56.34
51245;BME280;37840;47.562;18.738;2023-05-07T12:05:54;99813.41;;;21.66;56.73
51245;BME280;37840;47.562;18.738;2023-05-07T12:10:49;99814.75;;;21.70;53.53
51245;BME280;37840;47.562;18.738;2023-05-07T12:15:45;99819.81;;;21.33;51.91
51245;BME280;37840;47.562;18.738;2023-05-07T12:18:12;99819.13;;;21.31;51.88
51245;BME280;37840;47.562;18.738;2023-05-07T12:20:39;99819.00;;;21.25;54.05
51245;BME280;37840;47.562;18.738;2023-05-07T12:23:05;99811.13;;;21.15;54.93
51245;BME280;37840;47.562;18.738;2023-05-07T12:25:34;99803.72;;;21.09;55.32
51245;BME280;37840;47.562;18.738;2023-05-07T12:28:01;99812.66;;;21.09;56.56
51245;BME280;37840;47.562;18.738;2023-05-07T12:30:27;99800.50;;;21.05;56.32
51245;BME280;37840;47.562;18.738;2023-05-07T12:32:54;99814.28;;;21.18;57.13
51245;BME280;37840;47.562;18.738;2023-05-07T12:35:47;99799.16;;;21.49;57.53
51245;BME280;37840;47.562;18.738;2023-05-07T12:38:14;99798.72;;;21.60;57.63
51245;BME280;37840;47.562;18.738;2023-05-07T12:40:46;99805.63;;;21.63;56.21
51245;BME280;37840;47.562;18.738;2023-05-07T12:43:45;99808.09;;;21.49;54.02
51245;BME280;37840;47.562;18.738;2023-05-07T12:46:11;99807.97;;;21.43;53.89
51245;BME280;37840;47.562;18.738;2023-05-07T12:48:46;99807.97;;;21.43;55.44
51245;BME280;37840;47.562;18.738;2023-05-07T12:51:12;99810.00;;;21.32;56.04
51245;BME280;37840;47.562;18.738;2023-05-07T12:53:40;99806.03;;;21.12;55.91
51245;BME280;37840;47.562;18.738;2023-05-07T12:56:08;99796.91;;;21.21;56.91
51245;BME280;37840;47.562;18.738;2023-05-07T12:58:35;99799.72;;;21.28;55.89
51245;BME280;37840;47.562;18.738;2023-05-07T13:01:06;99803.09;;;21.30;55.36
51245;BME280;37840;47.562;18.738;2023-05-07T13:03:34;99791.75;;;21.34;55.46
51245;BME280;37840;47.562;18.738;2023-05-07T13:06:02;99802.69;;;21.49;54.70
51245;BME280;37840;47.562;18.738;2023-05-07T13:08:31;99791.31;;;21.54;55.38
51245;BME280;37840;47.562;18.738;2023-05-07T13:10:58;99792.59;;;21.66;55.52
51245;BME280;37840;47.562;18.738;2023-05-07T13:13:25;99791.16;;;21.78;51.00
51245;BME280;37840;47.562;18.738;2023-05-07T13:15:51;99787.59;;;21.78;51.82
51245;BME280;37840;47.562;18.738;2023-05-07T13:18:17;99789.03;;;21.89;51.36
51245;BME280;37840;47.562;18.738;2023-05-07T13:20:43;99778.94;;;21.83;50.12
51245;BME280;37840;47.562;18.738;2023-05-07T13:23:09;99780.69;;;21.75;50.74
51245;BME280;37840;47.562;18.738;2023-05-07T13:25:35;99777.44;;;21.80;51.14
51245;BME280;37840;47.562;18.738;2023-05-07T13:28:01;99789.47;;;21.77;52.11